sensor_id;sensor_type;location;lat;lon;timestamp;P1;durP1;ratioP1;P2;durP2;ratioP2
73575;SDS011;61859;49.204;8.140;2022-08-01T00:00:09;2.17;;;2.07;;
73575;SDS011;61859;49.204;8.140;2022-08-01T00:02:36;3.17;;;2.00;;
73575;SDS011;61859;49.204;8.140;2022-08-01T00:05:02;2.20;;;2.00;;
73575;SDS011;61859;49.204;8.140;2022-08-01T00:07:30;3.10;;;1.70;;
73575;SDS011;61859;49.204;8.140;2022-08-01T00:09:56;2.30;;;2.10;;
73575;SDS011;61859;49.204;8.140;2022-08-01T00:12:22;2.53;;;2.10;;
73575;SDS011;61859;49.204;8.140;2022-08-01T00:14:47;2.40;;;1.80;;
73575;SDS011;61859;49.204;8.140;2022-08-01T00:17:13;2.10;;;1.77;;
73575;SDS011;61859;49.204;8.140;2022-08-01T00:19:39;2.73;;;1.97;;
73575;SDS011;61859;49.204;8.140;2022-08-01T00:22:04;3.07;;;1.73;;
73575;SDS011;61859;49.204;8.140;2022-08-01T00:24:30;1.90;;;1.60;;
73575;SDS011;61859;49.204;8.140;2022-08-01T00:26:55;1.80;;;1.70;;
73575;SDS011;61859;49.204;8.140;2022-08-01T00:29:21;3.00;;;1.90;;
73575;SDS011;61859;49.204;8.140;2022-08-01T00:31:47;2.27;;;2.00;;
73575;SDS011;61859;49.204;8.140;2022-08-01T00:34:12;2.43;;;2.07;;
73575;SDS011;61859;49.204;8.140;2022-08-01T00:36:38;2.43;;;1.70;;
73575;SDS011;61859;49.204;8.140;2022-08-01T00:39:03;1.93;;;1.67;;
73575;SDS011;61859;49.204;8.140;2022-08-01T00:41:29;2.73;;;1.70;;
73575;SDS011;61859;49.204;8.140;2022-08-01T00:43:54;2.20;;;2.00;;
73575;SDS011;61859;49.204;8.140;2022-08-01T00:46:20;3.17;;;1.83;;
73575;SDS011;61859;49.204;8.140;2022-08-01T00:48:46;2.27;;;1.37;;
73575;SDS011;61859;49.204;8.140;2022-08-01T00:51:11;1.57;;;1.43;;
73575;SDS011;61859;49.204;8.140;2022-08-01T00:53:38;1.97;;;1.67;;
73575;SDS011;61859;49.204;8.140;2022-08-01T00:56:04;1.50;;;1.40;;
73575;SDS011;61859;49.204;8.140;2022-08-01T00:58:30;2.50;;;1.30;;
73575;SDS011;61859;49.204;8.140;2022-08-01T01:00:57;2.43;;;2.00;;
73575;SDS011;61859;49.204;8.140;2022-08-01T01:03:24;1.70;;;1.60;;
73575;SDS011;61859;49.204;8.140;2022-08-01T01:05:54;1.93;;;1.60;;
73575;SDS011;61859;49.204;8.140;2022-08-01T01:08:32;1.60;;;1.50;;
73575;SDS011;61859;49.204;8.140;2022-08-01T01:11:07;2.10;;;1.47;;
73575;SDS011;61859;49.204;8.140;2022-08-01T01:13:53;1.40;;;1.30;;
73575;SDS011;61859;49.204;8.140;2022-08-01T01:16:26;1.83;;;1.50;;
73575;SDS011;61859;49.204;8.140;2022-08-01T01:18:54;1.83;;;1.40;;
73575;SDS011;61859;49.204;8.140;2022-08-01T01:21:35;1.40;;;1.30;;
73575;SDS011;61859;49.204;8.140;2022-08-01T01:24:26;1.83;;;1.47;;
73575;SDS011;61859;49.204;8.140;2022-08-01T01:29:38;1.17;;;1.13;;
73575;SDS011;61859;49.204;8.140;2022-08-01T01:32:22;1.97;;;1.50;;
73575;SDS011;61859;49.204;8.140;2022-08-01T01:35:05;1.70;;;1.10;;
73575;SDS011;61859;49.204;8.140;2022-08-01T01:37:34;1.50;;;1.40;;
73575;SDS011;61859;49.204;8.140;2022-08-01T01:40:03;2.33;;;1.17;;
73575;SDS011;61859;49.204;8.140;2022-08-01T01:42:30;1.40;;;1.30;;
73575;SDS011;61859;49.204;8.140;2022-08-01T01:44:58;1.33;;;1.23;;
73575;SDS011;61859;49.204;8.140;2022-08-01T01:47:25;1.17;;;1.17;;
73575;SDS011;61859;49.204;8.140;2022-08-01T01:49:52;1.50;;;1.40;;
73575;SDS011;61859;49.204;8.140;2022-08-01T01:52:18;1.10;;;1.10;;
73575;SDS011;61859;49.204;8.140;2022-08-01T01:54:46;1.93;;;1.70;;
73575;SDS011;61859;49.204;8.140;2022-08-01T01:57:15;1.53;;;1.27;;
73575;SDS011;61859;49.204;8.140;2022-08-01T01:59:42;1.90;;;1.17;;
73575;SDS011;61859;49.204;8.140;2022-08-01T02:02:09;1.13;;;1.03;;
73575;SDS011;61859;49.204;8.140;2022-08-01T02:04:36;1.50;;;1.40;;
73575;SDS011;61859;49.204;8.140;2022-08-01T02:07:07;2.37;;;1.40;;
73575;SDS011;61859;49.204;8.140;2022-08-01T02:09:34;1.77;;;1.40;;
73575;SDS011;61859;49.204;8.140;2022-08-01T02:12:02;1.40;;;1.30;;
73575;SDS011;61859;49.204;8.140;2022-08-01T02:14:30;2.20;;;1.23;;
73575;SDS011;61859;49.204;8.140;2022-08-01T02:16:59;1.30;;;1.20;;
73575;SDS011;61859;49.204;8.140;2022-08-01T02:19:28;1.77;;;1.40;;
73575;SDS011;61859;49.204;8.140;2022-08-01T02:22:00;1.40;;;1.23;;
73575;SDS011;61859;49.204;8.140;2022-08-01T02:24:41;2.43;;;1.40;;
73575;SDS011;61859;49.204;8.140;2022-08-01T02:27:09;1.23;;;1.13;;
73575;SDS011;61859;49.204;8.140;2022-08-01T02:29:39;2.00;;;1.37;;
73575;SDS011;61859;49.204;8.140;2022-08-01T02:32:09;1.63;;;1.30;;
73575;SDS011;61859;49.204;8.140;2022-08-01T02:34:39;1.60;;;1.50;;
73575;SDS011;61859;49.204;8.140;2022-08-01T02:37:06;2.57;;;1.30;;
73575;SDS011;61859;49.204;8.140;2022-08-01T02:39:32;1.50;;;1.40;;
73575;SDS011;61859;49.204;8.140;2022-08-01T02:42:03;1.60;;;1.50;;
73575;SDS011;61859;49.204;8.140;2022-08-01T02:44:32;1.40;;;1.30;;
73575;SDS011;61859;49.204;8.140;2022-08-01T02:47:03;2.23;;;1.60;;
73575;SDS011;61859;49.204;8.140;2022-08-01T02:49:36;2.43;;;1.40;;
73575;SDS011;61859;49.204;8.140;2022-08-01T02:52:12;1.67;;;1.30;;
73575;SDS011;61859;49.204;8.140;2022-08-01T02:54:40;3.10;;;1.60;;
73575;SDS011;61859;49.204;8.140;2022-08-01T02:57:09;1.70;;;1.60;;
73575;SDS011;61859;49.204;8.140;2022-08-01T02:59:36;2.07;;;1.40;;
73575;SDS011;61859;49.204;8.140;2022-08-01T03:02:04;1.37;;;1.27;;
73575;SDS011;61859;49.204;8.140;2022-08-01T03:04:32;1.90;;;1.80;;
73575;SDS011;61859;49.204;8.140;2022-08-01T03:07:00;1.87;;;1.50;;
73575;SDS011;61859;49.204;8.140;2022-08-01T03:09:29;2.33;;;1.90;;
73575;SDS011;61859;49.204;8.140;2022-08-01T03:11:57;1.73;;;1.60;;
73575;SDS011;61859;49.204;8.140;2022-08-01T03:14:27;2.83;;;1.77;;
73575;SDS011;61859;49.204;8.140;2022-08-01T03:16:55;2.83;;;1.63;;
73575;SDS011;61859;49.204;8.140;2022-08-01T03:19:22;4.60;;;1.83;;
73575;SDS011;61859;49.204;8.140;2022-08-01T03:21:51;1.80;;;1.70;;
73575;SDS011;61859;49.204;8.140;2022-08-01T03:24:17;1.67;;;1.57;;
73575;SDS011;61859;49.204;8.140;2022-08-01T03:26:43;1.70;;;1.60;;
73575;SDS011;61859;49.204;8.140;2022-08-01T03:29:12;1.93;;;1.83;;
73575;SDS011;61859;49.204;8.140;2022-08-01T03:31:41;2.83;;;1.70;;
73575;SDS011;61859;49.204;8.140;2022-08-01T03:34:10;2.40;;;1.93;;
73575;SDS011;61859;49.204;8.140;2022-08-01T03:36:39;3.83;;;1.70;;
73575;SDS011;61859;49.204;8.140;2022-08-01T03:39:12;2.10;;;1.70;;
73575;SDS011;61859;49.204;8.140;2022-08-01T03:41:40;1.97;;;1.70;;
73575;SDS011;61859;49.204;8.140;2022-08-01T03:44:10;2.13;;;1.90;;
73575;SDS011;61859;49.204;8.140;2022-08-01T03:46:48;1.70;;;1.57;;
73575;SDS011;61859;49.204;8.140;2022-08-01T03:49:22;2.80;;;1.90;;
73575;SDS011;61859;49.204;8.140;2022-08-01T03:51:51;2.73;;;1.67;;
73575;SDS011;61859;49.204;8.140;2022-08-01T03:54:23;1.53;;;1.43;;
73575;SDS011;61859;49.204;8.140;2022-08-01T03:56:50;2.27;;;1.70;;
73575;SDS011;61859;49.204;8.140;2022-08-01T03:59:16;3.73;;;2.10;;
73575;SDS011;61859;49.204;8.140;2022-08-01T04:01:44;1.77;;;1.67;;
73575;SDS011;61859;49.204;8.140;2022-08-01T04:04:11;2.37;;;1.60;;
73575;SDS011;61859;49.204;8.140;2022-08-01T04:06:38;3.50;;;1.70;;
73575;SDS011;61859;49.204;8.140;2022-08-01T04:09:03;1.83;;;1.73;;
73575;SDS011;61859;49.204;8.140;2022-08-01T04:11:29;3.57;;;1.53;;
73575;SDS011;61859;49.204;8.140;2022-08-01T04:13:55;1.87;;;1.77;;
73575;SDS011;61859;49.204;8.140;2022-08-01T04:16:22;2.77;;;2.00;;
73575;SDS011;61859;49.204;8.140;2022-08-01T04:18:48;1.63;;;1.50;;
73575;SDS011;61859;49.204;8.140;2022-08-01T04:21:14;1.70;;;1.60;;
73575;SDS011;61859;49.204;8.140;2022-08-01T04:23:43;1.93;;;1.73;;
73575;SDS011;61859;49.204;8.140;2022-08-01T04:26:09;1.97;;;1.70;;
73575;SDS011;61859;49.204;8.140;2022-08-01T04:28:37;1.97;;;1.50;;
73575;SDS011;61859;49.204;8.140;2022-08-01T04:31:05;2.10;;;1.67;;
73575;SDS011;61859;49.204;8.140;2022-08-01T04:33:34;2.53;;;1.90;;
73575;SDS011;61859;49.204;8.140;2022-08-01T04:36:03;4.13;;;2.10;;
73575;SDS011;61859;49.204;8.140;2022-08-01T04:38:31;2.00;;;1.80;;
73575;SDS011;61859;49.204;8.140;2022-08-01T04:40:58;3.33;;;1.87;;
73575;SDS011;61859;49.204;8.140;2022-08-01T04:43:26;3.43;;;1.73;;
73575;SDS011;61859;49.204;8.140;2022-08-01T04:45:52;3.77;;;1.83;;
73575;SDS011;61859;49.204;8.140;2022-08-01T04:48:19;2.83;;;1.83;;
73575;SDS011;61859;49.204;8.140;2022-08-01T04:50:45;1.70;;;1.60;;
73575;SDS011;61859;49.204;8.140;2022-08-01T04:53:14;2.20;;;2.00;;
73575;SDS011;61859;49.204;8.140;2022-08-01T04:55:42;2.03;;;1.73;;
73575;SDS011;61859;49.204;8.140;2022-08-01T04:58:09;3.23;;;1.73;;
73575;SDS011;61859;49.204;8.140;2022-08-01T05:00:35;2.13;;;1.80;;
73575;SDS011;61859;49.204;8.140;2022-08-01T05:03:00;2.00;;;1.80;;
73575;SDS011;61859;49.204;8.140;2022-08-01T05:05:26;1.93;;;1.63;;
73575;SDS011;61859;49.204;8.140;2022-08-01T05:07:52;1.63;;;1.40;;
73575;SDS011;61859;49.204;8.140;2022-08-01T05:10:17;2.93;;;1.90;;
73575;SDS011;61859;49.204;8.140;2022-08-01T05:12:43;1.93;;;1.60;;
73575;SDS011;61859;49.204;8.140;2022-08-01T05:15:08;3.33;;;1.60;;
73575;SDS011;61859;49.204;8.140;2022-08-01T05:17:34;1.67;;;1.57;;
73575;SDS011;61859;49.204;8.140;2022-08-01T05:20:00;2.20;;;1.60;;
73575;SDS011;61859;49.204;8.140;2022-08-01T05:22:26;2.10;;;1.50;;
73575;SDS011;61859;49.204;8.140;2022-08-01T05:24:52;1.40;;;1.30;;
73575;SDS011;61859;49.204;8.140;2022-08-01T05:27:17;3.47;;;1.50;;
73575;SDS011;61859;49.204;8.140;2022-08-01T05:29:43;3.47;;;1.57;;
73575;SDS011;61859;49.204;8.140;2022-08-01T05:32:08;2.00;;;1.60;;
73575;SDS011;61859;49.204;8.140;2022-08-01T05:34:34;1.70;;;1.43;;
73575;SDS011;61859;49.204;8.140;2022-08-01T05:37:00;2.20;;;2.00;;
73575;SDS011;61859;49.204;8.140;2022-08-01T05:39:25;2.70;;;1.60;;
73575;SDS011;61859;49.204;8.140;2022-08-01T05:41:51;3.57;;;1.60;;
73575;SDS011;61859;49.204;8.140;2022-08-01T05:44:16;2.33;;;1.60;;
73575;SDS011;61859;49.204;8.140;2022-08-01T05:46:42;1.63;;;1.53;;
73575;SDS011;61859;49.204;8.140;2022-08-01T05:49:07;1.50;;;1.40;;
73575;SDS011;61859;49.204;8.140;2022-08-01T05:51:33;4.17;;;1.60;;
73575;SDS011;61859;49.204;8.140;2022-08-01T05:53:59;1.53;;;1.40;;
73575;SDS011;61859;49.204;8.140;2022-08-01T05:56:24;1.60;;;1.50;;
73575;SDS011;61859;49.204;8.140;2022-08-01T06:01:18;3.20;;;1.63;;
73575;SDS011;61859;49.204;8.140;2022-08-01T06:03:44;2.60;;;1.47;;
73575;SDS011;61859;49.204;8.140;2022-08-01T06:06:10;1.63;;;1.53;;
73575;SDS011;61859;49.204;8.140;2022-08-01T06:08:35;2.93;;;1.30;;
73575;SDS011;61859;49.204;8.140;2022-08-01T06:11:01;1.43;;;1.33;;
73575;SDS011;61859;49.204;8.140;2022-08-01T06:13:27;2.90;;;1.57;;
73575;SDS011;61859;49.204;8.140;2022-08-01T06:15:53;2.47;;;1.60;;
73575;SDS011;61859;49.204;8.140;2022-08-01T06:18:19;2.53;;;1.53;;
73575;SDS011;61859;49.204;8.140;2022-08-01T06:20:44;2.47;;;1.50;;
73575;SDS011;61859;49.204;8.140;2022-08-01T06:23:10;1.40;;;1.30;;
73575;SDS011;61859;49.204;8.140;2022-08-01T06:25:35;2.00;;;1.37;;
73575;SDS011;61859;49.204;8.140;2022-08-01T06:28:01;2.63;;;1.60;;
73575;SDS011;61859;49.204;8.140;2022-08-01T06:30:27;2.93;;;1.27;;
73575;SDS011;61859;49.204;8.140;2022-08-01T06:32:53;1.53;;;1.43;;
73575;SDS011;61859;49.204;8.140;2022-08-01T06:35:21;1.40;;;1.30;;
73575;SDS011;61859;49.204;8.140;2022-08-01T06:37:46;3.63;;;1.30;;
73575;SDS011;61859;49.204;8.140;2022-08-01T06:40:12;1.87;;;1.40;;
73575;SDS011;61859;49.204;8.140;2022-08-01T06:42:38;1.53;;;1.30;;
73575;SDS011;61859;49.204;8.140;2022-08-01T06:45:04;1.90;;;1.27;;
73575;SDS011;61859;49.204;8.140;2022-08-01T06:47:32;0.90;;;0.90;;
73575;SDS011;61859;49.204;8.140;2022-08-01T06:49:58;1.40;;;1.30;;
73575;SDS011;61859;49.204;8.140;2022-08-01T06:52:23;1.63;;;1.40;;
73575;SDS011;61859;49.204;8.140;2022-08-01T06:54:49;1.33;;;1.07;;
73575;SDS011;61859;49.204;8.140;2022-08-01T06:57:15;1.60;;;1.20;;
73575;SDS011;61859;49.204;8.140;2022-08-01T06:59:40;2.50;;;1.40;;
73575;SDS011;61859;49.204;8.140;2022-08-01T07:02:06;1.37;;;1.27;;
73575;SDS011;61859;49.204;8.140;2022-08-01T07:04:32;1.20;;;1.10;;
73575;SDS011;61859;49.204;8.140;2022-08-01T07:06:58;1.10;;;1.00;;
73575;SDS011;61859;49.204;8.140;2022-08-01T07:09:24;1.50;;;1.40;;
73575;SDS011;61859;49.204;8.140;2022-08-01T07:11:50;3.10;;;1.47;;
73575;SDS011;61859;49.204;8.140;2022-08-01T07:14:17;1.17;;;1.08;;
73575;SDS011;61859;49.204;8.140;2022-08-01T07:16:46;1.53;;;1.10;;
73575;SDS011;61859;49.204;8.140;2022-08-01T07:19:12;1.90;;;1.23;;
73575;SDS011;61859;49.204;8.140;2022-08-01T07:21:38;1.67;;;1.13;;
73575;SDS011;61859;49.204;8.140;2022-08-01T07:24:04;1.02;;;1.02;;
73575;SDS011;61859;49.204;8.140;2022-08-01T07:26:31;1.65;;;1.15;;
73575;SDS011;61859;49.204;8.140;2022-08-01T07:28:57;1.10;;;1.00;;
73575;SDS011;61859;49.204;8.140;2022-08-01T07:31:22;1.95;;;0.85;;
73575;SDS011;61859;49.204;8.140;2022-08-01T07:33:48;1.05;;;1.00;;
73575;SDS011;61859;49.204;8.140;2022-08-01T07:36:18;0.70;;;0.63;;
73575;SDS011;61859;49.204;8.140;2022-08-01T07:38:44;2.20;;;1.25;;
73575;SDS011;61859;49.204;8.140;2022-08-01T07:41:10;1.33;;;0.82;;
73575;SDS011;61859;49.204;8.140;2022-08-01T07:43:36;0.63;;;0.60;;
73575;SDS011;61859;49.204;8.140;2022-08-01T07:46:03;2.05;;;0.70;;
73575;SDS011;61859;49.204;8.140;2022-08-01T07:48:28;1.20;;;0.80;;
73575;SDS011;61859;49.204;8.140;2022-08-01T07:50:54;0.65;;;0.65;;
73575;SDS011;61859;49.204;8.140;2022-08-01T07:53:20;1.58;;;0.70;;
73575;SDS011;61859;49.204;8.140;2022-08-01T07:55:46;2.00;;;0.90;;
73575;SDS011;61859;49.204;8.140;2022-08-01T07:58:11;1.77;;;0.90;;
73575;SDS011;61859;49.204;8.140;2022-08-01T08:00:37;2.22;;;0.93;;
73575;SDS011;61859;49.204;8.140;2022-08-01T08:03:02;1.10;;;0.70;;
73575;SDS011;61859;49.204;8.140;2022-08-01T08:05:28;0.85;;;0.85;;
73575;SDS011;61859;49.204;8.140;2022-08-01T08:07:54;2.47;;;1.00;;
73575;SDS011;61859;49.204;8.140;2022-08-01T08:10:19;0.90;;;0.90;;
73575;SDS011;61859;49.204;8.140;2022-08-01T08:12:45;1.27;;;1.05;;
73575;SDS011;61859;49.204;8.140;2022-08-01T08:15:11;2.65;;;1.45;;
73575;SDS011;61859;49.204;8.140;2022-08-01T08:17:37;1.02;;;1.02;;
73575;SDS011;61859;49.204;8.140;2022-08-01T08:20:05;2.67;;;0.90;;
73575;SDS011;61859;49.204;8.140;2022-08-01T08:22:32;4.03;;;1.00;;
73575;SDS011;61859;49.204;8.140;2022-08-01T08:24:57;3.10;;;1.50;;
73575;SDS011;61859;49.204;8.140;2022-08-01T08:27:23;1.15;;;1.00;;
73575;SDS011;61859;49.204;8.140;2022-08-01T08:29:48;1.55;;;1.00;;
73575;SDS011;61859;49.204;8.140;2022-08-01T08:32:14;1.13;;;0.80;;
73575;SDS011;61859;49.204;8.140;2022-08-01T08:34:39;0.80;;;0.80;;
73575;SDS011;61859;49.204;8.140;2022-08-01T08:37:05;2.55;;;1.10;;
73575;SDS011;61859;49.204;8.140;2022-08-01T08:39:32;1.42;;;0.80;;
73575;SDS011;61859;49.204;8.140;2022-08-01T08:42:00;1.25;;;1.00;;
73575;SDS011;61859;49.204;8.140;2022-08-01T08:44:27;3.92;;;1.00;;
73575;SDS011;61859;49.204;8.140;2022-08-01T08:46:52;2.58;;;0.90;;
73575;SDS011;61859;49.204;8.140;2022-08-01T08:49:24;1.10;;;0.98;;
73575;SDS011;61859;49.204;8.140;2022-08-01T08:51:52;0.70;;;0.70;;
73575;SDS011;61859;49.204;8.140;2022-08-01T08:54:19;1.88;;;0.80;;
73575;SDS011;61859;49.204;8.140;2022-08-01T08:56:48;1.15;;;0.93;;
73575;SDS011;61859;49.204;8.140;2022-08-01T08:59:16;1.08;;;0.80;;
73575;SDS011;61859;49.204;8.140;2022-08-01T09:01:42;0.93;;;0.82;;
73575;SDS011;61859;49.204;8.140;2022-08-01T09:04:08;1.48;;;0.90;;
73575;SDS011;61859;49.204;8.140;2022-08-01T09:06:34;1.15;;;0.95;;
73575;SDS011;61859;49.204;8.140;2022-08-01T09:09:00;1.05;;;0.90;;
73575;SDS011;61859;49.204;8.140;2022-08-01T09:11:25;1.02;;;1.02;;
73575;SDS011;61859;49.204;8.140;2022-08-01T09:14:05;1.90;;;0.90;;
73575;SDS011;61859;49.204;8.140;2022-08-01T09:16:33;1.25;;;1.10;;
73575;SDS011;61859;49.204;8.140;2022-08-01T09:19:07;1.30;;;0.85;;
73575;SDS011;61859;49.204;8.140;2022-08-01T09:21:38;1.23;;;1.10;;
73575;SDS011;61859;49.204;8.140;2022-08-01T09:24:10;1.00;;;1.00;;
73575;SDS011;61859;49.204;8.140;2022-08-01T09:26:38;0.85;;;0.82;;
73575;SDS011;61859;49.204;8.140;2022-08-01T09:29:05;1.08;;;0.98;;
73575;SDS011;61859;49.204;8.140;2022-08-01T09:31:50;0.93;;;0.93;;
73575;SDS011;61859;49.204;8.140;2022-08-01T09:34:16;2.67;;;1.10;;
73575;SDS011;61859;49.204;8.140;2022-08-01T09:39:38;3.05;;;1.13;;
73575;SDS011;61859;49.204;8.140;2022-08-01T09:42:28;2.95;;;1.08;;
73575;SDS011;61859;49.204;8.140;2022-08-01T09:44:53;0.80;;;0.80;;
73575;SDS011;61859;49.204;8.140;2022-08-01T09:47:19;1.20;;;0.95;;
73575;SDS011;61859;49.204;8.140;2022-08-01T09:49:45;1.20;;;1.08;;
73575;SDS011;61859;49.204;8.140;2022-08-01T09:52:20;1.13;;;0.90;;
73575;SDS011;61859;49.204;8.140;2022-08-01T09:54:55;2.53;;;1.00;;
73575;SDS011;61859;49.204;8.140;2022-08-01T09:57:22;1.17;;;1.08;;
73575;SDS011;61859;49.204;8.140;2022-08-01T09:59:52;1.60;;;1.10;;
73575;SDS011;61859;49.204;8.140;2022-08-01T10:02:33;1.17;;;1.08;;
73575;SDS011;61859;49.204;8.140;2022-08-01T10:05:01;1.10;;;1.10;;
73575;SDS011;61859;49.204;8.140;2022-08-01T10:07:28;3.92;;;1.17;;
73575;SDS011;61859;49.204;8.140;2022-08-01T10:09:54;2.25;;;0.70;;
73575;SDS011;61859;49.204;8.140;2022-08-01T10:12:20;2.25;;;1.13;;
73575;SDS011;61859;49.204;8.140;2022-08-01T10:14:49;3.22;;;1.20;;
73575;SDS011;61859;49.204;8.140;2022-08-01T10:17:19;1.15;;;1.13;;
73575;SDS011;61859;49.204;8.140;2022-08-01T10:19:45;2.15;;;0.90;;
73575;SDS011;61859;49.204;8.140;2022-08-01T10:22:12;2.20;;;1.20;;
73575;SDS011;61859;49.204;8.140;2022-08-01T10:24:43;0.93;;;0.90;;
73575;SDS011;61859;49.204;8.140;2022-08-01T10:27:11;1.10;;;0.98;;
73575;SDS011;61859;49.204;8.140;2022-08-01T10:29:42;1.38;;;1.27;;
73575;SDS011;61859;49.204;8.140;2022-08-01T10:32:14;1.17;;;1.08;;
73575;SDS011;61859;49.204;8.140;2022-08-01T10:34:42;3.20;;;1.23;;
73575;SDS011;61859;49.204;8.140;2022-08-01T10:37:07;1.85;;;1.10;;
73575;SDS011;61859;49.204;8.140;2022-08-01T10:39:34;2.25;;;0.95;;
73575;SDS011;61859;49.204;8.140;2022-08-01T10:42:00;0.93;;;0.93;;
73575;SDS011;61859;49.204;8.140;2022-08-01T10:44:27;1.00;;;1.00;;
73575;SDS011;61859;49.204;8.140;2022-08-01T10:46:55;1.20;;;0.82;;
73575;SDS011;61859;49.204;8.140;2022-08-01T10:49:27;1.08;;;0.90;;
73575;SDS011;61859;49.204;8.140;2022-08-01T10:51:55;1.67;;;1.08;;
73575;SDS011;61859;49.204;8.140;2022-08-01T10:54:23;0.75;;;0.75;;
73575;SDS011;61859;49.204;8.140;2022-08-01T10:56:50;0.95;;;0.95;;
73575;SDS011;61859;49.204;8.140;2022-08-01T10:59:21;0.93;;;0.90;;
73575;SDS011;61859;49.204;8.140;2022-08-01T11:01:57;2.17;;;1.10;;
73575;SDS011;61859;49.204;8.140;2022-08-01T11:05:09;0.82;;;0.82;;
73575;SDS011;61859;49.204;8.140;2022-08-01T11:07:17;2.80;;;1.20;;
73575;SDS011;61859;49.204;8.140;2022-08-01T11:09:47;1.00;;;0.95;;
73575;SDS011;61859;49.204;8.140;2022-08-01T11:12:37;1.00;;;0.82;;
73575;SDS011;61859;49.204;8.140;2022-08-01T11:17:35;1.55;;;0.88;;
73575;SDS011;61859;49.204;8.140;2022-08-01T11:20:16;2.03;;;1.10;;
73575;SDS011;61859;49.204;8.140;2022-08-01T11:30:42;0.82;;;0.77;;
73575;SDS011;61859;49.204;8.140;2022-08-01T11:33:08;2.83;;;0.65;;
73575;SDS011;61859;49.204;8.140;2022-08-01T11:35:35;1.00;;;0.85;;
73575;SDS011;61859;49.204;8.140;2022-08-01T11:38:22;1.10;;;1.10;;
73575;SDS011;61859;49.204;8.140;2022-08-01T11:41:09;1.17;;;0.95;;
73575;SDS011;61859;49.204;8.140;2022-08-01T11:43:54;1.48;;;0.70;;
73575;SDS011;61859;49.204;8.140;2022-08-01T11:46:38;1.08;;;0.98;;
73575;SDS011;61859;49.204;8.140;2022-08-01T11:52:10;0.85;;;0.85;;
73575;SDS011;61859;49.204;8.140;2022-08-01T11:54:37;2.30;;;0.90;;
73575;SDS011;61859;49.204;8.140;2022-08-01T11:59:49;1.77;;;0.60;;
73575;SDS011;61859;49.204;8.140;2022-08-01T12:02:20;1.33;;;0.98;;
73575;SDS011;61859;49.204;8.140;2022-08-01T12:07:22;0.90;;;0.90;;
73575;SDS011;61859;49.204;8.140;2022-08-01T12:09:55;4.20;;;0.88;;
73575;SDS011;61859;49.204;8.140;2022-08-01T12:12:27;2.20;;;0.77;;
73575;SDS011;61859;49.204;8.140;2022-08-01T12:14:55;3.22;;;0.77;;
73575;SDS011;61859;49.204;8.140;2022-08-01T12:17:33;1.75;;;0.73;;
73575;SDS011;61859;49.204;8.140;2022-08-01T12:20:01;2.58;;;0.80;;
73575;SDS011;61859;49.204;8.140;2022-08-01T12:22:28;0.82;;;0.82;;
73575;SDS011;61859;49.204;8.140;2022-08-01T12:24:54;2.70;;;1.00;;
73575;SDS011;61859;49.204;8.140;2022-08-01T12:27:27;0.80;;;0.60;;
73575;SDS011;61859;49.204;8.140;2022-08-01T12:29:54;0.70;;;0.68;;
73575;SDS011;61859;49.204;8.140;2022-08-01T12:32:22;0.75;;;0.75;;
73575;SDS011;61859;49.204;8.140;2022-08-01T12:34:57;2.67;;;0.80;;
73575;SDS011;61859;49.204;8.140;2022-08-01T12:37:26;1.60;;;0.68;;
73575;SDS011;61859;49.204;8.140;2022-08-01T12:39:52;0.90;;;0.70;;
73575;SDS011;61859;49.204;8.140;2022-08-01T12:42:18;4.15;;;0.90;;
73575;SDS011;61859;49.204;8.140;2022-08-01T12:44:45;2.80;;;0.85;;
73575;SDS011;61859;49.204;8.140;2022-08-01T12:47:12;1.50;;;0.85;;
73575;SDS011;61859;49.204;8.140;2022-08-01T12:49:39;0.88;;;0.68;;
73575;SDS011;61859;49.204;8.140;2022-08-01T12:52:08;1.95;;;1.05;;
73575;SDS011;61859;49.204;8.140;2022-08-01T12:57:33;0.80;;;0.60;;
73575;SDS011;61859;49.204;8.140;2022-08-01T13:00:13;2.15;;;0.90;;
73575;SDS011;61859;49.204;8.140;2022-08-01T13:02:47;1.00;;;0.75;;
73575;SDS011;61859;49.204;8.140;2022-08-01T13:05:15;1.55;;;0.70;;
73575;SDS011;61859;49.204;8.140;2022-08-01T13:07:43;1.58;;;1.10;;
73575;SDS011;61859;49.204;8.140;2022-08-01T13:10:11;0.68;;;0.65;;
73575;SDS011;61859;49.204;8.140;2022-08-01T13:12:38;0.60;;;0.60;;
73575;SDS011;61859;49.204;8.140;2022-08-01T13:17:47;1.10;;;0.82;;
73575;SDS011;61859;49.204;8.140;2022-08-01T13:20:29;0.88;;;0.85;;
73575;SDS011;61859;49.204;8.140;2022-08-01T13:23:13;1.67;;;0.75;;
73575;SDS011;61859;49.204;8.140;2022-08-01T13:28:18;2.72;;;0.63;;
73575;SDS011;61859;49.204;8.140;2022-08-01T13:30:58;2.47;;;0.60;;
73575;SDS011;61859;49.204;8.140;2022-08-01T13:33:39;1.02;;;0.90;;
73575;SDS011;61859;49.204;8.140;2022-08-01T13:36:06;0.52;;;0.52;;
73575;SDS011;61859;49.204;8.140;2022-08-01T13:38:32;1.13;;;0.80;;
73575;SDS011;61859;49.204;8.140;2022-08-01T13:41:21;2.10;;;0.73;;
73575;SDS011;61859;49.204;8.140;2022-08-01T13:43:46;0.60;;;0.60;;
73575;SDS011;61859;49.204;8.140;2022-08-01T13:46:12;0.80;;;0.65;;
73575;SDS011;61859;49.204;8.140;2022-08-01T13:48:38;1.90;;;0.90;;
73575;SDS011;61859;49.204;8.140;2022-08-01T13:51:03;0.88;;;0.65;;
73575;SDS011;61859;49.204;8.140;2022-08-01T13:53:29;0.95;;;0.88;;
73575;SDS011;61859;49.204;8.140;2022-08-01T13:55:54;0.80;;;0.70;;
73575;SDS011;61859;49.204;8.140;2022-08-01T13:58:20;4.15;;;0.50;;
73575;SDS011;61859;49.204;8.140;2022-08-01T14:00:45;2.53;;;0.90;;
73575;SDS011;61859;49.204;8.140;2022-08-01T14:03:12;0.68;;;0.60;;
73575;SDS011;61859;49.204;8.140;2022-08-01T14:05:37;1.27;;;0.90;;
73575;SDS011;61859;49.204;8.140;2022-08-01T14:08:04;0.70;;;0.70;;
73575;SDS011;61859;49.204;8.140;2022-08-01T14:10:30;1.50;;;0.57;;
73575;SDS011;61859;49.204;8.140;2022-08-01T14:12:56;1.55;;;0.63;;
73575;SDS011;61859;49.204;8.140;2022-08-01T14:15:23;1.67;;;0.80;;
73575;SDS011;61859;49.204;8.140;2022-08-01T14:17:49;0.90;;;0.68;;
73575;SDS011;61859;49.204;8.140;2022-08-01T14:20:15;1.10;;;0.80;;
73575;SDS011;61859;49.204;8.140;2022-08-01T14:22:44;0.65;;;0.63;;
73575;SDS011;61859;49.204;8.140;2022-08-01T14:25:10;1.40;;;0.63;;
73575;SDS011;61859;49.204;8.140;2022-08-01T14:27:36;0.93;;;0.70;;
73575;SDS011;61859;49.204;8.140;2022-08-01T14:30:02;1.08;;;0.90;;
73575;SDS011;61859;49.204;8.140;2022-08-01T14:32:28;2.08;;;0.80;;
73575;SDS011;61859;49.204;8.140;2022-08-01T14:34:55;0.77;;;0.60;;
73575;SDS011;61859;49.204;8.140;2022-08-01T14:37:21;0.73;;;0.60;;
73575;SDS011;61859;49.204;8.140;2022-08-01T14:39:48;0.65;;;0.65;;
73575;SDS011;61859;49.204;8.140;2022-08-01T14:42:14;1.60;;;0.80;;
73575;SDS011;61859;49.204;8.140;2022-08-01T14:44:39;1.10;;;0.65;;
73575;SDS011;61859;49.204;8.140;2022-08-01T14:47:05;0.50;;;0.50;;
73575;SDS011;61859;49.204;8.140;2022-08-01T14:49:30;0.65;;;0.57;;
73575;SDS011;61859;49.204;8.140;2022-08-01T14:51:56;0.60;;;0.40;;
73575;SDS011;61859;49.204;8.140;2022-08-01T14:54:22;2.05;;;0.65;;
73575;SDS011;61859;49.204;8.140;2022-08-01T14:56:48;1.95;;;0.73;;
73575;SDS011;61859;49.204;8.140;2022-08-01T14:59:14;0.60;;;0.60;;
73575;SDS011;61859;49.204;8.140;2022-08-01T15:01:39;1.13;;;0.60;;
73575;SDS011;61859;49.204;8.140;2022-08-01T15:04:05;0.47;;;0.47;;
73575;SDS011;61859;49.204;8.140;2022-08-01T15:06:31;1.60;;;0.80;;
73575;SDS011;61859;49.204;8.140;2022-08-01T15:08:57;1.05;;;0.60;;
73575;SDS011;61859;49.204;8.140;2022-08-01T15:11:22;1.02;;;0.70;;
73575;SDS011;61859;49.204;8.140;2022-08-01T15:13:48;1.38;;;0.80;;
73575;SDS011;61859;49.204;8.140;2022-08-01T15:16:34;1.17;;;0.70;;
73575;SDS011;61859;49.204;8.140;2022-08-01T15:19:00;0.57;;;0.57;;
73575;SDS011;61859;49.204;8.140;2022-08-01T15:21:26;0.68;;;0.47;;
73575;SDS011;61859;49.204;8.140;2022-08-01T15:23:51;1.25;;;0.70;;
73575;SDS011;61859;49.204;8.140;2022-08-01T15:26:17;1.40;;;0.65;;
73575;SDS011;61859;49.204;8.140;2022-08-01T15:28:42;0.82;;;0.68;;